Browns Mills, New Jersey
Current Conditions -  °F | °C
As of 10:58 AM on Thursday 29 Jan 2015 (Local Time) from KWRI Reporting Station
Broken Clouds Broken Clouds  
Wind Chill: 28°   Ceiling: 17000
Heat Index: 28°   Visibility: 10mi
Dew Point:   Wind: 2mph
Humidity: 39%   Direction: 360°N
Pressure: 30.29"   Gusts: NA
Location:  39.97°N, 74.57°W
Report Text: KWRI 291558Z AUTO 36002KT 10SM BKN170 BKN190 M02/M14 A3029 RMK AO2 SLP262 T10231145
Loading
Personal Weather Stations






























Interactive Weather Map New forecast layout! Learn more

10-Day Weather Forecast

Advertisements
Track Severe Weather on mobile